Time;durP1;ratioP1;P1;durP2;ratioP2;P2;SDS_P1;SDS_P2;PMS_P1;PMS_P2;Temp;Humidity;BMP_temperature;BMP_pressure;BME280_temperature;BME280_humidity;BME280_pressure;Samples;Min_cycle;Max_cycle;Signal;HPM_P1;HPM_P2
2023/08/29 00:02:04;;;;;;;22.50;13.55;;;;;;;23.52;56.79;101226.63;5094775;28;20424;-48
2023/08/29 00:04:30;;;;;;;23.85;13.00;;;;;;;23.26;57.86;101217.78;5094159;28;20494;-47
2023/08/29 00:06:56;;;;;;;20.95;12.50;;;;;;;22.97;58.27;101226.66;5096288;28;20036;-46
2023/08/29 00:09:23;;;;;;;19.48;12.68;;;;;;;22.89;58.82;101216.31;5088062;28;20016;-46
2023/08/29 00:11:49;;;;;;;25.55;13.07;;;;;;;22.65;57.79;101207.91;5103667;28;21002;-47
2023/08/29 00:14:15;;;;;;;23.27;12.73;;;;;;;22.65;58.72;101219.66;5099143;28;20033;-45
2023/08/29 00:16:42;;;;;;;29.30;14.65;;;;;;;22.63;58.90;101216.38;5074005;28;20495;-45
2023/08/29 00:19:08;;;;;;;25.92;12.98;;;;;;;22.57;59.04;101211.22;5074169;28;20028;-47
2023/08/29 00:21:34;;;;;;;30.10;14.70;;;;;;;22.40;59.99;101215.06;5073633;28;20028;-45
2023/08/29 00:24:00;;;;;;;26.63;13.50;;;;;;;22.65;60.41;101225.13;5073956;28;20035;-47
2023/08/29 00:26:26;;;;;;;30.95;15.23;;;;;;;22.27;60.09;101214.84;5077424;28;20474;-45
2023/08/29 00:28:53;;;;;;;22.10;13.15;;;;;;;22.01;60.93;101211.28;5074072;28;20032;-46
2023/08/29 00:31:20;;;;;;;25.10;14.02;;;;;;;21.95;61.73;101215.91;5110104;28;20561;-45
2023/08/29 00:33:46;;;;;;;23.50;14.52;;;;;;;22.00;62.27;101215.91;5108597;28;20024;-45
2023/08/29 00:36:12;;;;;;;25.13;13.48;;;;;;;22.19;62.19;101209.91;5094333;28;20024;-45
2023/08/29 00:38:38;;;;;;;30.10;15.35;;;;;;;22.12;61.89;101212.94;5093874;28;20032;-45
2023/08/29 00:41:05;;;;;;;28.50;13.80;;;;;;;22.05;61.32;101205.00;5088836;28;20040;-47
2023/08/29 00:43:31;;;;;;;25.17;15.27;;;;;;;22.13;60.94;101196.28;5076984;28;20047;-45
2023/08/29 00:45:59;;;;;;;23.33;13.85;;;;;;;21.99;61.39;101218.91;5075143;28;20139;-44
2023/08/29 00:48:25;;;;;;;23.50;13.88;;;;;;;21.95;62.44;101220.53;5075255;28;20037;-45
2023/08/29 00:50:52;;;;;;;21.60;12.80;;;;;;;21.76;63.24;101212.88;5073245;28;20035;-47
2023/08/29 00:53:19;;;;;;;30.42;14.13;;;;;;;21.73;63.36;101212.63;5073677;28;20037;-46
2023/08/29 00:55:45;;;;;;;28.85;13.50;;;;;;;21.74;63.50;101209.63;5073683;28;20482;-45
2023/08/29 00:58:13;;;;;;;23.17;13.15;;;;;;;21.81;63.50;101207.44;5075435;28;20036;-44
2023/08/29 01:00:39;;;;;;;25.48;12.98;;;;;;;21.80;63.43;101215.91;5093424;28;20024;-46
2023/08/29 01:03:05;;;;;;;27.90;14.45;;;;;;;21.64;64.02;101209.63;5093321;28;20056;-44
2023/08/29 01:05:32;;;;;;;26.35;12.95;;;;;;;21.64;64.15;101215.06;5093475;28;20454;-45
2023/08/29 01:08:00;;;;;;;25.40;12.70;;;;;;;21.76;63.14;101212.06;5084248;28;20035;-45
2023/08/29 01:10:40;;;;;;;23.60;13.27;;;;;;;21.63;64.32;101213.44;5093130;28;20032;-44
2023/08/29 01:13:27;;;;;;;23.67;12.68;;;;;;;21.46;64.35;101213.69;5093010;28;20020;-45
2023/08/29 01:15:58;;;;;;;27.90;13.00;;;;;;;21.69;63.85;101209.63;5074403;28;20085;-46
2023/08/29 01:18:27;;;;;;;24.85;12.60;;;;;;;21.67;63.49;101211.81;5075872;28;20032;-45
2023/08/29 01:21:16;;;;;;;26.85;12.90;;;;;;;21.51;63.87;101210.97;5071403;28;20378;-44
2023/08/29 01:24:10;;;;;;;22.40;12.70;;;;;;;21.72;63.58;101203.66;5091601;28;20111;-44
2023/08/29 01:26:37;;;;;;;26.40;13.70;;;;;;;21.78;63.98;101209.91;5076468;28;20084;-45
2023/08/29 01:29:04;;;;;;;28.20;13.10;;;;;;;21.65;64.69;101200.34;5072616;28;20389;-44
2023/08/29 01:31:32;;;;;;;27.75;12.98;;;;;;;21.57;65.06;101201.72;5080720;28;20054;-43
2023/08/29 01:33:59;;;;;;;26.77;12.35;;;;;;;21.24;66.11;101202.97;5091877;28;20024;-43
2023/08/29 01:36:38;;;;;;;20.08;12.15;;;;;;;21.10;66.59;101196.44;5092814;28;20058;-43
2023/08/29 01:39:05;;;;;;;34.20;13.68;;;;;;;21.16;66.00;101198.06;5083200;28;20033;-43
2023/08/29 01:41:31;;;;;;;23.65;12.63;;;;;;;21.23;65.98;101197.81;5072314;28;20165;-43
2023/08/29 01:43:57;;;;;;;28.08;12.65;;;;;;;21.08;66.62;101193.94;5073027;28;20031;-43
2023/08/29 01:46:24;;;;;;;27.52;13.23;;;;;;;20.91;67.03;101184.38;5072910;28;20029;-44
2023/08/29 01:48:50;;;;;;;27.45;12.50;;;;;;;20.65;68.66;101181.53;5072958;28;20047;-43
2023/08/29 01:51:16;;;;;;;32.90;13.10;;;;;;;20.59;68.69;101179.06;5072568;28;20094;-43
2023/08/29 01:53:42;;;;;;;25.17;12.77;;;;;;;20.56;69.04;101183.13;5072123;28;20021;-43
2023/08/29 01:56:12;;;;;;;23.38;12.63;;;;;;;20.55;70.03;101184.22;5071917;28;20547;-43
2023/08/29 01:58:39;;;;;;;24.52;13.05;;;;;;;20.55;69.07;101185.03;5072205;28;20056;-43
2023/08/29 02:01:05;;;;;;;24.25;12.82;;;;;;;20.26;70.62;101168.22;5071753;28;20475;-43
2023/08/29 02:03:32;;;;;;;23.83;12.60;;;;;;;20.29;70.40;101177.78;5074105;28;20501;-43
2023/08/29 02:05:58;;;;;;;24.35;11.98;;;;;;;20.31;70.28;101170.97;5078215;28;20020;-43
2023/08/29 02:08:24;;;;;;;34.70;15.18;;;;;;;20.04;70.85;101165.66;5091969;28;20032;-44
2023/08/29 02:10:51;;;;;;;29.00;13.40;;;;;;;19.95;71.59;101166.41;5091595;28;20025;-44
2023/08/29 02:13:17;;;;;;;28.00;13.45;;;;;;;20.10;71.21;101163.81;5091948;28;20389;-43
2023/08/29 02:15:43;;;;;;;30.67;13.68;;;;;;;19.86;72.05;101167.97;5091807;28;20028;-44
2023/08/29 02:18:09;;;;;;;23.77;12.48;;;;;;;20.12;70.64;101161.63;5101214;28;20050;-44
2023/08/29 02:20:37;;;;;;;27.40;13.68;;;;;;;19.99;70.71;101162.09;5111758;28;20024;-43
2023/08/29 02:23:03;;;;;;;29.90;13.77;;;;;;;20.09;70.76;101170.28;5079203;28;20029;-43
2023/08/29 02:25:30;;;;;;;33.20;13.90;;;;;;;19.95;71.67;101166.41;5071195;28;20033;-43
2023/08/29 02:27:56;;;;;;;29.00;13.95;;;;;;;19.87;71.95;101175.84;5084751;28;20111;-45
2023/08/29 02:30:22;;;;;;;24.88;13.75;;;;;;;19.81;72.23;101170.63;5091442;28;20028;-43
2023/08/29 02:32:49;;;;;;;26.80;14.77;;;;;;;19.49;74.09;101166.00;5091061;28;20081;-45
2023/08/29 02:35:15;;;;;;;33.90;13.98;;;;;;;19.21;75.43;101175.19;5091086;28;20042;-43
2023/08/29 02:37:41;;;;;;;28.33;15.23;;;;;;;19.22;75.94;101174.97;5090996;28;20086;-43
2023/08/29 02:40:08;;;;;;;29.63;14.90;;;;;;;19.17;75.35;101172.19;5090688;28;20036;-43
2023/08/29 02:42:35;;;;;;;26.15;13.57;;;;;;;19.08;75.87;101173.72;5085763;28;20437;-43
2023/08/29 02:45:03;;;;;;;26.80;14.68;;;;;;;19.18;75.23;101173.81;5080637;28;20028;-42
2023/08/29 02:47:29;;;;;;;23.95;13.75;;;;;;;19.16;75.19;101175.97;5085346;28;20386;-43
2023/08/29 02:49:56;;;;;;;31.52;14.38;;;;;;;19.07;75.48;101177.50;5091186;28;20027;-43
2023/08/29 02:52:22;;;;;;;31.50;15.77;;;;;;;18.82;76.20;101179.91;5020552;28;2008667;-43
2023/08/29 02:54:48;;;;;;;33.30;15.38;;;;;;;18.73;76.32;101183.06;5091958;28;20093;-44
2023/08/29 02:57:14;;;;;;;30.40;14.77;;;;;;;18.55;77.12;101185.25;5091715;28;20016;-43
2023/08/29 02:59:41;;;;;;;23.65;13.35;;;;;;;18.48;77.84;101174.56;5091900;28;20048;-42
2023/08/29 03:02:08;;;;;;;31.23;14.35;;;;;;;18.42;77.85;101194.53;5091424;28;20470;-42
2023/08/29 03:04:34;;;;;;;25.20;14.30;;;;;;;18.45;77.72;101186.72;5091841;28;20032;-43
2023/08/29 03:07:00;;;;;;;25.23;13.32;;;;;;;18.62;76.78;101192.09;5092125;28;20107;-43
2023/08/29 03:09:28;;;;;;;25.90;13.50;;;;;;;18.74;76.10;101192.03;5091760;28;20059;-45
2023/08/29 03:11:55;;;;;;;28.40;13.48;;;;;;;18.68;75.89;101185.72;5091542;28;20101;-42
2023/08/29 03:14:21;;;;;;;25.15;13.50;;;;;;;18.65;75.83;101188.88;5091861;28;20103;-43
2023/08/29 03:16:47;;;;;;;26.75;13.00;;;;;;;18.43;77.25;101194.31;5091048;28;20027;-42
2023/08/29 03:19:14;;;;;;;24.80;14.52;;;;;;;18.36;77.34;101184.69;5082343;28;20032;-43
2023/08/29 03:21:40;;;;;;;26.40;14.30;;;;;;;18.44;76.56;101195.94;5091381;28;20048;-43
2023/08/29 03:24:08;;;;;;;28.60;13.80;;;;;;;18.52;76.51;101194.69;5091535;28;20028;-43
2023/08/29 03:26:34;;;;;;;27.33;14.68;;;;;;;18.35;75.98;101199.31;5091441;28;20030;-43
2023/08/29 03:29:00;;;;;;;22.77;12.77;;;;;;;18.44;75.61;101201.34;5091643;28;20036;-42
2023/08/29 03:31:26;;;;;;;24.50;14.65;;;;;;;18.46;75.10;101196.50;5091377;28;20032;-43
2023/08/29 03:33:53;;;;;;;24.13;14.18;;;;;;;18.22;75.83;101194.25;5091444;28;20028;-43
2023/08/29 03:36:20;;;;;;;21.05;12.88;;;;;;;18.12;76.38;101206.56;5091464;28;20115;-44
2023/08/29 03:38:46;;;;;;;27.65;14.13;;;;;;;17.99;76.67;101211.47;5092391;28;20036;-45
2023/08/29 03:41:13;;;;;;;24.70;13.20;;;;;;;18.22;75.09;101208.63;5092000;28;20537;-43
2023/08/29 03:43:39;;;;;;;24.67;12.93;;;;;;;18.14;74.30;101201.72;5091744;28;20128;-46
2023/08/29 03:46:07;;;;;;;30.27;13.35;;;;;;;18.18;74.10;101213.69;5091302;28;20103;-43
2023/08/29 03:48:37;;;;;;;24.83;13.18;;;;;;;18.18;73.64;101216.41;5091454;28;20024;-43
2023/08/29 03:51:06;;;;;;;24.80;12.40;;;;;;;18.28;73.16;101215.75;5092630;28;20390;-42
2023/08/29 03:53:38;;;;;;;23.88;12.90;;;;;;;18.10;74.46;101216.00;5095182;28;20028;-43
2023/08/29 03:56:08;;;;;;;25.60;13.27;;;;;;;18.18;74.39;101219.13;5095224;28;20028;-45
2023/08/29 03:58:35;;;;;;;21.92;12.23;;;;;;;18.24;74.16;101227.31;5095018;28;20027;-43
2023/08/29 04:01:03;;;;;;;18.80;12.18;;;;;;;18.26;73.88;101225.19;5094774;28;20036;-43
2023/08/29 04:03:30;;;;;;;23.67;12.00;;;;;;;18.38;73.06;101215.91;5094851;28;20020;-43
2023/08/29 04:06:00;;;;;;;24.80;12.85;;;;;;;18.51;73.33;101231.00;5094835;28;20062;-46
2023/08/29 04:08:26;;;;;;;26.60;12.93;;;;;;;18.51;73.21;101217.44;5095119;28;20035;-49
2023/08/29 04:10:52;;;;;;;23.67;12.88;;;;;;;18.35;74.20;101223.69;5113870;28;20469;-42
2023/08/29 04:13:19;;;;;;;21.30;12.38;;;;;;;18.32;73.84;101225.03;5115343;28;20035;-43
2023/08/29 04:15:45;;;;;;;25.52;13.07;;;;;;;18.36;74.70;101236.19;5115263;28;20062;-42
2023/08/29 04:18:11;;;;;;;23.90;13.77;;;;;;;18.31;75.25;101227.97;5115195;28;20469;-43
2023/08/29 04:20:37;;;;;;;23.30;12.88;;;;;;;18.39;75.23;101233.00;5096678;28;20421;-44
2023/08/29 04:23:05;;;;;;;29.85;13.75;;;;;;;18.37;74.25;101237.81;5114545;28;20492;-44
2023/08/29 04:25:34;;;;;;;21.48;12.57;;;;;;;18.26;74.12;101238.72;5115043;28;20043;-43
2023/08/29 04:28:00;;;;;;;21.63;12.40;;;;;;;18.29;73.34;101246.38;5115050;28;20422;-43
2023/08/29 04:30:26;;;;;;;23.75;13.20;;;;;;;18.39;72.59;101249.25;5114715;28;20031;-43
2023/08/29 04:32:52;;;;;;;25.98;13.73;;;;;;;18.30;72.74;101242.59;5114840;28;20153;-42
2023/08/29 04:35:19;;;;;;;18.80;13.10;;;;;;;18.34;72.26;101246.47;5114491;28;20473;-42
2023/08/29 04:37:47;;;;;;;16.77;13.10;;;;;;;18.30;71.90;101242.59;5114625;28;20024;-43
2023/08/29 04:40:14;;;;;;;26.88;13.25;;;;;;;18.26;72.36;101236.03;5114945;28;20024;-42
2023/08/29 04:42:41;;;;;;;24.92;13.52;;;;;;;18.11;73.01;101245.56;5114504;28;20027;-42
2023/08/29 04:45:08;;;;;;;25.75;13.10;;;;;;;18.06;73.00;101244.66;5114381;28;20031;-43
2023/08/29 04:47:35;;;;;;;25.90;13.68;;;;;;;17.90;74.05;101246.28;5114414;28;20027;-42
2023/08/29 04:50:01;;;;;;;23.63;12.43;;;;;;;18.06;73.37;101250.06;5114360;28;20028;-42
2023/08/29 04:52:28;;;;;;;27.10;12.80;;;;;;;18.01;73.73;101247.28;5113984;28;20044;-42
2023/08/29 04:54:55;;;;;;;24.90;13.75;;;;;;;17.99;73.77;101246.69;5080323;28;20029;-43
2023/08/29 04:57:22;;;;;;;25.10;12.20;;;;;;;17.96;73.82;101248.00;5073607;28;20108;-42
2023/08/29 04:59:48;;;;;;;22.13;12.75;;;;;;;17.98;73.65;101245.88;5073617;28;20040;-43
2023/08/29 05:02:16;;;;;;;25.30;13.85;;;;;;;17.78;74.32;101256.38;5072084;28;20154;-43
2023/08/29 05:04:42;;;;;;;24.70;13.18;;;;;;;17.85;74.28;101247.00;5073589;28;20035;-43
2023/08/29 05:07:12;;;;;;;23.90;12.48;;;;;;;17.90;74.60;101241.69;5073469;28;20024;-44
2023/08/29 05:09:38;;;;;;;26.92;12.65;;;;;;;17.78;75.26;101245.53;5073191;28;20031;-44
2023/08/29 05:12:07;;;;;;;23.10;12.77;;;;;;;17.76;75.51;101251.16;5073097;28;20040;-43
2023/08/29 05:14:33;;;;;;;20.48;11.68;;;;;;;17.82;75.67;101249.38;5073351;28;20099;-44
2023/08/29 05:16:59;;;;;;;25.52;12.50;;;;;;;17.67;76.56;101247.22;5073408;28;20031;-44
2023/08/29 05:19:25;;;;;;;23.63;12.65;;;;;;;17.76;76.10;101240.34;5073107;28;20075;-43
2023/08/29 05:21:52;;;;;;;25.95;12.25;;;;;;;17.70;76.92;101238.56;5072894;28;20025;-43
2023/08/29 05:24:18;;;;;;;24.65;13.02;;;;;;;17.59;76.62;101248.41;5073124;28;20032;-44
2023/08/29 05:26:45;;;;;;;25.67;12.93;;;;;;;17.55;77.17;101251.84;5073356;28;20414;-46
2023/08/29 05:29:11;;;;;;;20.33;12.68;;;;;;;17.75;76.82;101248.72;5072436;28;20505;-43
2023/08/29 05:31:38;;;;;;;21.75;12.32;;;;;;;17.55;77.39;101252.69;5072815;28;20036;-44
2023/08/29 05:34:04;;;;;;;27.95;12.48;;;;;;;17.76;76.97;101253.06;5072894;28;20509;-44
2023/08/29 05:36:30;;;;;;;22.05;13.00;;;;;;;17.66;77.57;101248.28;5072721;28;20047;-43
2023/08/29 05:38:57;;;;;;;28.13;13.40;;;;;;;17.78;76.54;101243.66;5072983;28;20165;-43
2023/08/29 05:41:28;;;;;;;28.83;13.30;;;;;;;17.71;76.81;101244.81;5072747;28;20025;-43
2023/08/29 05:43:54;;;;;;;28.23;14.13;;;;;;;17.66;76.57;101246.38;5072772;28;20073;-43
2023/08/29 05:46:20;;;;;;;28.38;13.50;;;;;;;17.53;76.61;101253.97;5072921;28;20024;-44
2023/08/29 05:48:47;;;;;;;20.98;13.55;;;;;;;17.71;75.94;101255.63;5072804;28;20039;-45
2023/08/29 05:51:13;;;;;;;28.48;13.80;;;;;;;17.66;76.06;101254.50;5072745;28;20036;-43
2023/08/29 05:53:40;;;;;;;23.48;14.35;;;;;;;17.67;76.02;101258.84;5072719;28;20016;-44
2023/08/29 05:56:06;;;;;;;32.42;13.60;;;;;;;17.60;76.43;101265.47;5072715;28;20025;-43
2023/08/29 05:58:32;;;;;;;25.65;13.20;;;;;;;17.58;75.99;101254.06;5054921;28;20115;-43
2023/08/29 06:00:59;;;;;;;23.00;12.82;;;;;;;17.51;76.62;101259.63;5072182;28;20074;-43
2023/08/29 06:03:25;;;;;;;25.90;13.13;;;;;;;17.49;76.61;101256.34;5072117;28;20036;-42
2023/08/29 06:05:52;;;;;;;19.92;12.27;;;;;;;17.33;77.19;101254.41;5072448;28;20031;-44
2023/08/29 06:08:18;;;;;;;25.02;12.43;;;;;;;17.35;77.26;101252.28;5072555;28;20100;-44
2023/08/29 06:10:44;;;;;;;27.20;13.35;;;;;;;17.33;77.05;101249.81;5072447;28;20032;-45
2023/08/29 06:13:10;;;;;;;25.48;12.00;;;;;;;17.40;77.21;101252.38;5072290;28;20073;-44
2023/08/29 06:15:37;;;;;;;24.27;12.35;;;;;;;17.37;77.66;101252.84;5073545;28;20048;-44
2023/08/29 06:18:04;;;;;;;23.67;12.63;;;;;;;17.18;78.20;101257.63;5073273;28;20059;-43
2023/08/29 06:20:31;;;;;;;22.63;12.05;;;;;;;17.10;78.66;101250.72;5072344;28;20139;-43
2023/08/29 06:22:58;;;;;;;24.83;13.25;;;;;;;17.11;78.96;101257.78;5072710;28;20172;-44
2023/08/29 06:25:24;;;;;;;25.85;12.13;;;;;;;17.08;79.20;101242.00;5072137;28;20491;-44
2023/08/29 06:27:51;;;;;;;24.88;12.75;;;;;;;17.07;79.44;101253.06;5072179;28;20102;-43
2023/08/29 06:30:17;;;;;;;31.05;14.15;;;;;;;16.88;80.06;101247.81;5071968;28;20028;-45
2023/08/29 06:32:44;;;;;;;23.92;11.98;;;;;;;16.96;80.12;101235.81;5072066;28;20070;-43
2023/08/29 06:35:11;;;;;;;23.45;12.60;;;;;;;16.79;80.48;101238.44;5072475;28;20027;-45
2023/08/29 06:37:38;;;;;;;28.38;12.48;;;;;;;16.82;81.05;101237.13;5072027;28;20033;-43
2023/08/29 06:40:05;;;;;;;26.95;12.75;;;;;;;16.85;80.97;101239.34;5071298;28;20033;-44
2023/08/29 06:42:31;;;;;;;28.35;12.90;;;;;;;16.86;80.78;101235.59;5036340;28;20080;-43
2023/08/29 06:44:58;;;;;;;27.75;12.80;;;;;;;16.88;80.42;101236.19;5078669;28;20034;-43
2023/08/29 06:47:27;;;;;;;21.83;11.70;;;;;;;16.92;80.46;101231.09;5071517;28;20024;-44
2023/08/29 06:49:54;;;;;;;27.10;12.30;;;;;;;16.74;81.14;101237.50;5071342;28;20074;-44
2023/08/29 06:52:25;;;;;;;24.83;12.00;;;;;;;16.76;81.25;101238.06;5070747;28;20040;-43
2023/08/29 06:54:52;;;;;;;23.33;12.40;;;;;;;16.70;81.54;101241.69;5071568;28;20398;-46
2023/08/29 06:57:18;;;;;;;25.02;12.45;;;;;;;16.73;81.70;101239.38;5053677;28;20025;-44
2023/08/29 06:59:44;;;;;;;28.50;12.68;;;;;;;16.45;82.73;101234.66;5071173;28;20131;-43
2023/08/29 07:02:10;;;;;;;25.30;12.57;;;;;;;16.39;82.88;101238.31;5070841;28;20040;-43
2023/08/29 07:04:37;;;;;;;22.33;12.43;;;;;;;16.51;81.98;101235.59;5070824;28;20501;-42
2023/08/29 07:07:03;;;;;;;28.67;11.93;;;;;;;16.48;82.15;101234.19;5071294;28;20028;-43
2023/08/29 07:09:30;;;;;;;25.70;11.98;;;;;;;16.48;82.82;101234.19;5071540;28;20028;-50
2023/08/29 07:11:59;;;;;;;28.42;12.95;;;;;;;16.46;82.82;101239.00;5070991;28;20031;-42
2023/08/29 07:14:25;;;;;;;19.25;12.02;;;;;;;16.43;83.12;101239.47;5070886;28;20016;-43
2023/08/29 07:16:52;;;;;;;32.03;11.95;;;;;;;16.42;83.30;101240.53;5071133;28;20020;-42
2023/08/29 07:19:18;;;;;;;20.52;11.45;;;;;;;16.54;82.85;101235.94;5071205;28;20021;-42
2023/08/29 07:21:44;;;;;;;27.80;13.35;;;;;;;16.43;83.09;101234.06;5070898;28;20029;-43
2023/08/29 07:24:13;;;;;;;21.80;12.05;;;;;;;16.37;83.47;101246.63;5071444;28;20024;-43
2023/08/29 07:26:39;;;;;;;23.92;11.60;;;;;;;16.32;83.88;101241.13;5073827;28;20025;-43
2023/08/29 07:29:06;;;;;;;23.90;11.85;;;;;;;16.45;83.26;101240.06;5075004;28;20028;-42
2023/08/29 07:31:32;;;;;;;27.58;13.18;;;;;;;16.20;83.91;101240.28;5074897;28;20036;-42
2023/08/29 07:33:58;;;;;;;26.10;13.15;;;;;;;16.27;83.91;101241.00;5075118;28;20082;-43
2023/08/29 07:36:24;;;;;;;22.55;12.15;;;;;;;16.34;82.80;101243.59;5074583;28;20082;-42
2023/08/29 07:38:50;;;;;;;22.42;12.23;;;;;;;16.27;83.00;101246.41;5074876;28;20020;-43
2023/08/29 07:41:17;;;;;;;29.50;13.15;;;;;;;16.19;83.40;101243.22;5074032;28;20178;-43
2023/08/29 07:43:43;;;;;;;29.27;13.68;;;;;;;16.02;83.81;101243.91;5074977;28;20034;-43
2023/08/29 07:46:09;;;;;;;33.03;14.10;;;;;;;15.92;84.32;101240.94;5074746;28;20097;-43
2023/08/29 07:48:35;;;;;;;33.72;13.50;;;;;;;15.95;84.08;101234.28;5074459;28;20052;-42
2023/08/29 07:51:02;;;;;;;33.50;14.77;;;;;;;15.93;85.27;101236.38;5074167;28;20466;-42
2023/08/29 07:53:28;;;;;;;31.00;14.75;;;;;;;15.92;85.18;101238.25;5074671;28;20107;-43
2023/08/29 07:55:55;;;;;;;24.30;13.55;;;;;;;15.98;85.05;101234.63;5056987;28;20382;-42
2023/08/29 07:58:21;;;;;;;31.13;15.00;;;;;;;16.01;84.96;101234.16;5074575;28;20020;-44
2023/08/29 08:00:47;;;;;;;30.20;13.73;;;;;;;16.02;84.73;101233.09;5074260;28;20033;-43
2023/08/29 08:03:13;;;;;;;34.53;15.13;;;;;;;15.89;85.27;101232.50;5074443;28;20025;-43
2023/08/29 08:05:39;;;;;;;26.10;13.05;;;;;;;15.90;85.41;101229.56;5074433;28;20031;-43
2023/08/29 08:08:06;;;;;;;29.92;14.15;;;;;;;15.86;85.77;101239.16;5074534;28;20377;-44
2023/08/29 08:10:32;;;;;;;26.13;14.27;;;;;;;15.83;85.86;101232.38;5074063;28;20036;-45
2023/08/29 08:12:58;;;;;;;29.02;13.48;;;;;;;15.86;85.50;101236.47;5074112;28;20028;-43
2023/08/29 08:15:24;;;;;;;27.65;13.70;;;;;;;15.93;84.93;101239.06;5074300;28;20425;-43
2023/08/29 08:17:51;;;;;;;31.17;14.05;;;;;;;15.78;85.44;101243.03;5074374;28;20025;-43
2023/08/29 08:20:17;;;;;;;33.08;14.85;;;;;;;15.83;85.46;101236.94;5073888;28;20106;-43
2023/08/29 08:22:44;;;;;;;29.02;14.55;;;;;;;15.84;84.69;101244.00;5074393;28;20482;-43
2023/08/29 08:25:10;;;;;;;27.48;14.00;;;;;;;15.80;85.38;101243.63;5073923;28;20086;-43
2023/08/29 08:27:36;;;;;;;30.33;13.48;;;;;;;15.86;85.15;101243.75;5074092;28;20020;-43
2023/08/29 08:30:07;;;;;;;26.73;13.50;;;;;;;16.00;85.29;101253.31;5073894;28;20025;-43
2023/08/29 08:32:34;;;;;;;26.98;13.07;;;;;;;15.88;86.63;101245.19;5073879;28;20028;-43
2023/08/29 08:35:00;;;;;;;24.67;13.05;;;;;;;15.95;86.47;101248.59;5074183;28;20498;-44
2023/08/29 08:37:26;;;;;;;34.25;14.65;;;;;;;15.84;87.82;101244.00;5073689;28;20028;-44
2023/08/29 08:39:52;;;;;;;34.45;14.13;;;;;;;15.71;89.08;101241.47;5073704;28;20020;-43
2023/08/29 08:42:19;;;;;;;31.90;13.43;;;;;;;15.66;89.76;101238.66;5073265;28;20123;-43
2023/08/29 08:44:45;;;;;;;29.55;13.80;;;;;;;15.75;89.87;101235.38;5074785;28;20024;-43
2023/08/29 08:47:13;;;;;;;27.95;13.60;;;;;;;15.76;90.68;101220.81;5073996;28;20044;-43
2023/08/29 08:49:40;;;;;;;28.70;13.48;;;;;;;15.81;90.11;101234.47;5073911;28;20029;-43
2023/08/29 08:52:08;;;;;;;26.45;12.65;;;;;;;15.87;89.41;101231.88;5072928;28;20049;-42
2023/08/29 08:54:35;;;;;;;26.67;12.43;;;;;;;15.71;90.58;101226.13;5073467;28;20028;-43
2023/08/29 08:57:01;;;;;;;35.35;14.02;;;;;;;15.64;91.47;101229.97;5073418;28;20048;-42
2023/08/29 08:59:27;;;;;;;24.10;12.90;;;;;;;15.66;90.82;101230.56;5073923;28;20033;-43
2023/08/29 09:01:56;;;;;;;27.45;13.50;;;;;;;15.59;91.67;101228.72;5073198;28;20039;-43
2023/08/29 09:04:23;;;;;;;29.52;13.60;;;;;;;15.62;91.59;101229.34;5073239;28;20107;-43
2023/08/29 09:06:52;;;;;;;30.48;13.10;;;;;;;15.58;91.51;101227.09;5072248;28;20055;-44
2023/08/29 09:09:20;;;;;;;28.90;14.57;;;;;;;15.59;92.20;101242.22;5073308;28;20024;-45
2023/08/29 09:11:55;;;;;;;27.30;13.18;;;;;;;15.64;91.35;101238.88;5072696;28;20024;-43
2023/08/29 09:14:22;;;;;;;33.85;15.07;;;;;;;15.54;92.04;101234.00;5072924;28;20028;-43
2023/08/29 09:17:00;;;;;;;36.35;14.13;;;;;;;15.45;92.79;101239.97;5072930;28;20032;-43
2023/08/29 09:19:30;;;;;;;27.63;13.38;;;;;;;15.56;92.21;101234.59;5073206;28;20039;-43
2023/08/29 09:21:58;;;;;;;31.10;13.82;;;;;;;15.44;93.45;101232.91;5072675;28;20056;-43
2023/08/29 09:24:36;;;;;;;26.42;13.38;;;;;;;15.57;92.54;101241.63;5073015;28;20471;-42
2023/08/29 09:27:07;;;;;;;30.48;14.05;;;;;;;15.56;92.29;101249.97;5072692;28;20026;-45
2023/08/29 09:29:33;;;;;;;32.60;15.00;;;;;;;15.45;92.56;101237.25;5072899;28;20486;-42
2023/08/29 09:32:00;;;;;;;30.70;14.23;;;;;;;15.38;93.31;101234.66;5072299;28;20029;-43
2023/08/29 09:34:27;;;;;;;25.60;12.93;;;;;;;15.37;93.57;101227.59;5072483;28;20474;-43
2023/08/29 09:36:55;;;;;;;32.72;14.38;;;;;;;15.23;94.74;101234.22;5072640;28;20036;-44
2023/08/29 09:39:22;;;;;;;28.27;13.45;;;;;;;15.25;94.87;101238.31;5072428;28;20020;-43
2023/08/29 09:42:10;;;;;;;34.97;14.93;;;;;;;15.20;94.99;101240.06;5072182;28;20028;-43
2023/08/29 09:44:38;;;;;;;28.25;12.60;;;;;;;15.35;93.98;101239.66;5072644;28;20040;-43
2023/08/29 09:47:11;;;;;;;31.30;13.77;;;;;;;15.35;93.64;101245.88;5072270;28;20407;-43
2023/08/29 09:49:48;;;;;;;30.63;14.30;;;;;;;15.36;92.99;101239.44;5071923;28;20641;-43
2023/08/29 09:52:16;;;;;;;29.70;14.05;;;;;;;15.18;93.78;101234.91;5071962;28;20458;-43
2023/08/29 09:54:49;;;;;;;30.23;13.80;;;;;;;15.22;93.09;101254.16;5072381;28;20027;-44
2023/08/29 09:57:18;;;;;;;27.65;13.20;;;;;;;15.25;92.95;101245.59;5072196;28;20170;-43
2023/08/29 09:59:44;;;;;;;24.58;13.18;;;;;;;15.25;92.37;101242.91;5072433;28;20032;-43
2023/08/29 10:02:12;;;;;;;32.95;13.40;;;;;;;15.21;92.65;101252.50;5071762;28;20378;-43
2023/08/29 10:04:44;;;;;;;30.92;14.35;;;;;;;15.11;92.98;101254.91;5071796;28;20035;-44
2023/08/29 10:07:28;;;;;;;27.00;13.27;;;;;;;15.23;92.13;101255.81;5071893;28;20020;-43
2023/08/29 10:09:56;;;;;;;29.63;13.27;;;;;;;15.26;91.97;101248.06;5072217;28;20458;-44
2023/08/29 10:12:22;;;;;;;27.23;13.65;;;;;;;15.46;91.58;101249.69;5053760;28;20107;-43
2023/08/29 10:14:49;;;;;;;35.80;14.68;;;;;;;15.24;93.49;101249.34;5072127;28;20039;-44
2023/08/29 10:17:16;;;;;;;33.47;14.18;;;;;;;15.13;94.30;101247.41;5071558;28;20032;-43
2023/08/29 10:19:45;;;;;;;28.55;13.63;;;;;;;15.19;93.99;101239.25;5071473;28;20379;-43
2023/08/29 10:22:11;;;;;;;30.80;14.40;;;;;;;15.15;94.34;101238.03;5072181;28;20486;-43
2023/08/29 10:24:39;;;;;;;39.90;15.05;;;;;;;15.11;95.06;101246.84;5071662;28;20036;-44
2023/08/29 10:27:06;;;;;;;30.48;14.80;;;;;;;14.95;95.42;101257.16;5071555;28;20039;-43
2023/08/29 10:29:32;;;;;;;38.13;14.65;;;;;;;15.00;95.94;101254.63;5071722;28;20480;-43
2023/08/29 10:32:01;;;;;;;30.50;14.40;;;;;;;14.87;96.44;101265.53;5071457;28;20028;-44
2023/08/29 10:34:31;;;;;;;42.25;16.42;;;;;;;14.96;95.65;101264.19;5071420;28;20036;-44
2023/08/29 10:36:59;;;;;;;32.70;15.15;;;;;;;15.01;94.80;101258.13;5070489;28;20547;-44
2023/08/29 10:39:27;;;;;;;32.38;14.50;;;;;;;14.97;94.86;101257.75;5071299;28;20024;-43
2023/08/29 10:41:56;;;;;;;29.45;14.00;;;;;;;14.98;94.51;101262.09;5070854;28;20036;-44
2023/08/29 10:44:25;;;;;;;32.25;15.18;;;;;;;14.78;96.19;101250.72;5071544;28;20104;-43
2023/08/29 10:46:52;;;;;;;38.08;16.27;;;;;;;14.73;96.94;101250.56;5071639;28;20059;-44
2023/08/29 10:49:21;;;;;;;32.65;15.43;;;;;;;14.69;96.81;101260.13;5071430;28;20033;-43
2023/08/29 10:52:20;;;;;;;45.08;16.45;;;;;;;14.81;96.57;101268.31;5071017;28;20482;-45
2023/08/29 10:54:47;;;;;;;36.90;15.10;;;;;;;14.67;97.32;101259.53;5037968;28;20124;-46
2023/08/29 10:57:29;;;;;;;36.33;17.02;;;;;;;14.64;97.88;101259.97;5071571;28;20013;-43
2023/08/29 10:59:56;;;;;;;50.75;16.83;;;;;;;14.71;97.31;101258.03;5070545;28;20025;-44
2023/08/29 11:02:29;;;;;;;30.90;15.35;;;;;;;14.74;96.93;101271.88;5070591;28;20036;-43
2023/08/29 11:05:05;;;;;;;29.95;14.10;;;;;;;14.76;96.56;101268.97;5071677;28;20031;-44
2023/08/29 11:07:32;;;;;;;36.28;15.98;;;;;;;14.74;96.77;101274.59;5071598;28;20031;-43
2023/08/29 11:10:22;;;;;;;35.88;15.45;;;;;;;14.73;97.00;101274.81;5071535;28;20565;-43
2023/08/29 11:13:11;;;;;;;35.22;15.35;;;;;;;14.85;96.31;101273.03;5071192;28;20028;-43